createdAt,value
2022-12-03T00:04:55.921Z,66.91
2022-12-03T00:09:57.544Z,67.42
2022-12-03T00:14:59.025Z,66.15
2022-12-03T00:20:00.506Z,68.80
2022-12-03T00:25:01.965Z,67.94
2022-12-03T00:30:04.203Z,69.35
2022-12-03T00:35:05.973Z,67.74
2022-12-03T00:40:08.002Z,69.65
2022-12-03T00:45:09.780Z,68.10
2022-12-03T00:50:11.493Z,67.49
2022-12-03T00:55:12.943Z,67.38
2022-12-03T01:00:14.629Z,66.68
2022-12-03T01:05:16.161Z,67.79
2022-12-03T01:10:17.765Z,65.56
2022-12-03T01:15:19.246Z,65.60
2022-12-03T01:20:20.802Z,64.27
2022-12-03T01:25:22.346Z,64.18
2022-12-03T01:30:23.799Z,62.84
2022-12-03T01:35:25.267Z,63.32
2022-12-03T01:40:26.745Z,64.51
2022-12-03T01:45:28.217Z,64.35
2022-12-03T01:50:30.692Z,65.39
2022-12-03T01:55:32.196Z,63.69
2022-12-03T02:00:33.773Z,61.64
2022-12-03T02:05:35.259Z,59.96
2022-12-03T02:10:36.948Z,61.08
2022-12-03T02:15:38.876Z,60.96
2022-12-03T02:20:52.186Z,60.48
2022-12-03T02:25:53.645Z,62.29
2022-12-03T02:30:55.103Z,61.88
2022-12-03T02:36:01.967Z,61.12
2022-12-03T02:41:07.757Z,61.39
2022-12-03T02:46:09.212Z,59.97
2022-12-03T02:51:10.740Z,61.43
2022-12-03T02:56:13.733Z,62.19
2022-12-03T03:01:15.524Z,61.65
2022-12-03T03:06:17.340Z,62.25
2022-12-03T03:11:18.813Z,61.72
2022-12-03T03:16:20.307Z,63.52
2022-12-03T03:21:21.847Z,63.30
2022-12-03T03:26:23.307Z,60.78
2022-12-03T03:31:24.838Z,64.14
2022-12-03T03:36:26.364Z,63.26
2022-12-03T03:41:27.919Z,61.56
2022-12-03T03:46:29.710Z,62.26
2022-12-03T03:51:31.281Z,61.13
2022-12-03T03:56:32.802Z,61.90
2022-12-03T04:01:34.368Z,60.73
2022-12-03T04:06:35.855Z,62.32
2022-12-03T04:11:55.599Z,61.29
2022-12-03T04:16:57.100Z,61.92
2022-12-03T04:22:17.193Z,62.14
2022-12-03T04:27:36.956Z,63.11
2022-12-03T04:32:57.108Z,63.27
2022-12-03T04:37:58.615Z,62.88
2022-12-03T04:43:00.097Z,64.06
2022-12-03T04:48:01.571Z,63.98
2022-12-03T04:53:03.024Z,63.75
2022-12-03T04:58:04.544Z,63.56
2022-12-03T05:03:06.082Z,63.03
2022-12-03T05:08:08.227Z,64.04
2022-12-03T05:13:09.759Z,62.52
2022-12-03T05:18:11.211Z,62.15
2022-12-03T05:23:13.170Z,62.06
2022-12-03T05:28:14.649Z,61.58
2022-12-03T05:33:16.387Z,60.63
2022-12-03T05:38:17.837Z,63.22
2022-12-03T05:43:19.330Z,63.44
2022-12-03T05:48:20.959Z,62.90
2022-12-03T05:53:22.425Z,63.43
2022-12-03T05:58:23.883Z,61.95
2022-12-03T06:03:25.432Z,60.20
2022-12-03T06:08:27.003Z,61.44
2022-12-03T06:13:28.478Z,60.73
2022-12-03T06:18:29.931Z,62.02
2022-12-03T06:23:31.394Z,61.67
2022-12-03T06:28:32.839Z,62.72
2022-12-03T06:33:34.298Z,62.73
2022-12-03T06:38:35.760Z,61.62
2022-12-03T06:43:37.248Z,62.40
2022-12-03T06:48:38.695Z,62.18
2022-12-03T06:53:40.153Z,60.09
2022-12-03T06:58:41.644Z,60.16
2022-12-03T07:03:43.127Z,59.96
2022-12-03T07:08:44.583Z,59.29
2022-12-03T07:13:46.041Z,59.19
2022-12-03T07:18:47.507Z,59.38
2022-12-03T07:23:48.959Z,60.38
2022-12-03T07:28:50.416Z,59.79
2022-12-03T07:33:51.870Z,59.95
2022-12-03T07:38:53.324Z,60.57
2022-12-03T07:43:54.782Z,63.76
2022-12-03T07:48:56.305Z,62.51
2022-12-03T07:53:57.759Z,61.32
2022-12-03T07:58:59.217Z,60.91
2022-12-03T08:04:00.703Z,61.75
2022-12-03T08:09:02.158Z,60.77
2022-12-03T08:14:13.553Z,61.02
2022-12-03T08:19:15.757Z,61.69
2022-12-03T08:24:19.713Z,59.90
2022-12-03T08:29:21.620Z,58.00
2022-12-03T08:34:24.491Z,57.70
2022-12-03T08:39:25.773Z,57.59
2022-12-03T08:44:32.462Z,59.06
2022-12-03T08:49:33.919Z,59.02
2022-12-03T08:54:35.363Z,59.99
2022-12-03T08:59:39.343Z,60.05
2022-12-03T09:04:45.287Z,60.38
2022-12-03T09:09:46.738Z,60.26
2022-12-03T09:14:48.203Z,58.67
2022-12-03T09:19:49.682Z,58.24
2022-12-03T09:24:51.327Z,58.92
2022-12-03T09:29:52.875Z,59.70
2022-12-03T09:34:54.570Z,60.21
2022-12-03T09:39:56.319Z,59.11
2022-12-03T09:44:57.762Z,59.87
2022-12-03T09:49:59.248Z,59.91
2022-12-03T09:55:03.379Z,59.62
2022-12-03T10:00:18.840Z,60.83
2022-12-03T10:05:20.419Z,61.08
2022-12-03T10:10:22.891Z,61.56
2022-12-03T10:15:24.357Z,63.22
2022-12-03T10:20:25.888Z,61.84
2022-12-03T10:25:27.352Z,60.76
2022-12-03T10:30:29.081Z,61.71
2022-12-03T10:35:38.293Z,61.55
2022-12-03T10:40:39.761Z,63.40
2022-12-03T10:45:42.551Z,64.19
2022-12-03T10:50:56.669Z,63.28
2022-12-03T10:55:59.667Z,63.17
2022-12-03T11:01:03.320Z,63.34
2022-12-03T11:06:04.979Z,62.39
2022-12-03T11:11:07.700Z,60.89
2022-12-03T11:16:09.253Z,59.08
2022-12-03T11:21:13.645Z,59.12
2022-12-03T11:26:19.206Z,60.05
2022-12-03T11:31:41.524Z,59.27
2022-12-03T11:37:11.077Z,58.23
2022-12-03T11:42:27.391Z,57.53
2022-12-03T11:47:29.732Z,58.31
2022-12-03T11:52:33.118Z,58.02
2022-12-03T11:57:37.958Z,56.82
2022-12-03T12:02:39.487Z,57.95
2022-12-03T12:07:56.291Z,58.16
2022-12-03T12:12:57.792Z,56.27
2022-12-03T12:18:37.245Z,57.26
2022-12-03T12:23:38.728Z,56.66
2022-12-03T12:28:40.178Z,56.09
2022-12-03T12:33:41.630Z,57.51
2022-12-03T12:38:43.074Z,56.36
2022-12-03T12:43:44.533Z,56.63
2022-12-03T12:48:45.984Z,55.23
2022-12-03T12:53:47.821Z,55.52
2022-12-03T12:58:49.312Z,56.40
2022-12-03T13:03:51.327Z,57.75
2022-12-03T13:08:52.776Z,57.89
2022-12-03T13:13:54.232Z,56.76
2022-12-03T13:18:56.557Z,57.11
2022-12-03T13:23:58.028Z,57.08
2022-12-03T13:28:59.525Z,56.78
2022-12-03T13:34:00.979Z,56.55
2022-12-03T13:39:09.731Z,56.48
2022-12-03T13:44:16.575Z,56.53
2022-12-03T13:49:22.948Z,55.90
2022-12-03T13:54:26.284Z,56.79
2022-12-03T13:59:27.619Z,56.75
2022-12-03T14:04:29.105Z,56.58
2022-12-03T14:09:30.563Z,56.02
2022-12-03T14:14:32.036Z,56.47
2022-12-03T14:19:33.558Z,56.27
2022-12-03T14:24:35.024Z,57.18
2022-12-03T14:29:36.500Z,56.74
2022-12-03T14:34:37.951Z,56.09
2022-12-03T14:39:39.800Z,56.30
2022-12-03T14:44:48.020Z,56.87
2022-12-03T14:49:49.826Z,57.66
2022-12-03T14:54:51.277Z,57.74
2022-12-03T14:59:53.141Z,58.81
2022-12-03T15:04:54.803Z,60.39
2022-12-03T15:09:56.731Z,59.84
2022-12-03T15:14:58.424Z,59.72
2022-12-03T15:20:00.092Z,61.47
2022-12-03T15:25:03.340Z,61.50
2022-12-03T15:30:05.681Z,61.30
2022-12-03T15:35:07.464Z,61.69
2022-12-03T15:40:09.211Z,61.66
2022-12-03T15:45:15.000Z,60.86
2022-12-03T15:50:17.550Z,60.11
2022-12-03T15:55:19.022Z,60.21
2022-12-03T16:00:20.835Z,59.50
2022-12-03T16:05:22.307Z,60.04
2022-12-03T16:10:23.778Z,59.31
2022-12-03T16:15:27.152Z,59.16
2022-12-03T16:20:28.942Z,61.00
2022-12-03T16:25:30.401Z,60.92
2022-12-03T16:30:31.886Z,61.88
2022-12-03T16:35:33.339Z,62.41
2022-12-03T16:40:34.806Z,63.37
2022-12-03T16:45:46.136Z,62.49
2022-12-03T16:50:47.604Z,61.06
2022-12-03T16:55:49.068Z,59.77
2022-12-03T17:00:50.595Z,60.34
2022-12-03T17:05:52.082Z,60.14
2022-12-03T17:10:53.665Z,58.47
2022-12-03T17:15:55.218Z,58.08
2022-12-03T17:20:56.702Z,58.54
2022-12-03T17:25:58.174Z,58.41
2022-12-03T17:30:59.692Z,57.89
2022-12-03T17:36:01.258Z,56.56
2022-12-03T17:41:02.750Z,56.29
2022-12-03T17:46:05.137Z,56.29
2022-12-03T17:51:06.656Z,56.95
2022-12-03T17:56:08.116Z,55.80
2022-12-03T18:01:10.443Z,56.04
2022-12-03T18:06:11.931Z,55.56
2022-12-03T18:11:13.428Z,54.37
2022-12-03T18:16:15.350Z,55.39
2022-12-03T18:21:16.912Z,54.94
2022-12-03T18:26:18.443Z,54.03
2022-12-03T18:31:20.732Z,54.21
2022-12-03T18:36:23.691Z,53.64
2022-12-03T18:41:25.170Z,52.52
2022-12-03T18:46:51.659Z,51.91
2022-12-03T18:51:48.549Z,51.83
2022-12-03T18:56:50.444Z,52.29
2022-12-03T19:01:51.939Z,51.74
2022-12-03T19:06:53.431Z,51.39
2022-12-03T19:11:54.902Z,52.30
2022-12-03T19:16:56.384Z,52.11
2022-12-03T19:21:57.904Z,51.65
2022-12-03T19:26:59.365Z,52.49
2022-12-03T19:32:00.963Z,51.78
2022-12-03T19:37:02.570Z,52.15
2022-12-03T19:42:04.234Z,52.17
2022-12-03T19:47:05.793Z,52.75
2022-12-03T19:52:07.322Z,53.32
2022-12-03T19:57:08.885Z,55.38
2022-12-03T20:02:10.911Z,57.22
2022-12-03T20:07:12.451Z,55.21
2022-12-03T20:12:13.917Z,55.00
2022-12-03T20:17:15.362Z,55.58
2022-12-03T20:22:16.822Z,54.91
2022-12-03T20:27:22.647Z,54.09
2022-12-03T20:32:24.554Z,54.66
2022-12-03T20:37:26.041Z,54.18
2022-12-03T20:42:27.529Z,53.41
2022-12-03T20:47:28.993Z,53.26
2022-12-03T20:52:30.496Z,53.48
2022-12-03T20:57:31.990Z,52.62
2022-12-03T21:02:33.504Z,53.87
2022-12-03T21:07:35.067Z,54.66
2022-12-03T21:12:36.567Z,55.00
2022-12-03T21:17:38.243Z,54.55
2022-12-03T21:22:39.751Z,53.61
2022-12-03T21:27:41.204Z,54.74
2022-12-03T21:32:42.661Z,54.08
2022-12-03T21:37:44.151Z,53.63
2022-12-03T21:42:45.599Z,53.37
2022-12-03T21:47:48.187Z,54.42
2022-12-03T21:52:51.207Z,55.23
2022-12-03T21:57:52.654Z,54.00
2022-12-03T22:02:54.270Z,53.80
2022-12-03T22:07:55.845Z,54.63
2022-12-03T22:12:57.353Z,54.48
2022-12-03T22:17:58.918Z,52.07
2022-12-03T22:23:00.399Z,52.72
2022-12-03T22:28:01.893Z,54.64
2022-12-03T22:33:03.436Z,54.70
2022-12-03T22:38:04.916Z,54.11
2022-12-03T22:43:06.376Z,53.24
2022-12-03T22:48:07.848Z,53.30
2022-12-03T22:53:09.336Z,52.98
2022-12-03T22:58:11.122Z,52.04
2022-12-03T23:03:12.746Z,51.48
2022-12-03T23:08:15.904Z,52.53
2022-12-03T23:13:17.691Z,51.83
2022-12-03T23:18:19.287Z,51.48
2022-12-03T23:23:21.183Z,52.34
2022-12-03T23:28:22.650Z,52.75
2022-12-03T23:33:24.200Z,52.38
2022-12-03T23:38:25.668Z,52.32
2022-12-03T23:43:27.115Z,52.05
2022-12-03T23:48:29.002Z,51.66
2022-12-03T23:53:30.630Z,51.07
2022-12-03T23:58:32.226Z,50.23
